Time;durP1;ratioP1;P1;durP2;ratioP2;P2;SDS_P1;SDS_P2;PMS_P1;PMS_P2;Temp;Humidity;BMP_temperature;BMP_pressure;BME280_temperature;BME280_humidity;BME280_pressure;Samples;Min_cycle;Max_cycle;Signal;HPM_P1;HPM_P2
2022/08/03 00:04:20;;;;;;;2.83;2.20;;;;;;;23.90;42.51;100163.00;10455215;28;20196;-74
2022/08/03 00:09:34;;;;;;;3.47;2.30;;;;;;;23.88;42.72;100167.81;10475695;28;20105;-74
2022/08/03 00:14:36;;;;;;;4.10;1.90;;;;;;;23.78;42.59;100157.34;10474050;28;20707;-73
2022/08/03 00:19:37;;;;;;;2.85;2.08;;;;;;;23.72;43.38;100158.19;10471752;28;20059;-77
2022/08/03 00:24:38;;;;;;;2.20;2.00;;;;;;;23.56;43.53;100146.72;10469687;28;20099;-75
2022/08/03 00:29:40;;;;;;;3.10;2.00;;;;;;;23.51;43.49;100148.41;10486024;28;20056;-71
2022/08/03 00:35:00;;;;;;;2.20;1.98;;;;;;;23.47;44.10;100142.56;10486576;28;20403;-72
2022/08/03 00:40:11;;;;;;;4.28;2.10;;;;;;;23.37;44.47;100150.31;10477806;28;20140;-73
2022/08/03 00:45:13;;;;;;;3.25;2.20;;;;;;;23.37;44.32;100150.31;10472391;28;20313;-73
2022/08/03 00:50:15;;;;;;;3.55;2.30;;;;;;;23.28;44.70;100150.53;10471056;28;20074;-75
2022/08/03 00:55:17;;;;;;;4.33;2.30;;;;;;;23.24;44.65;100143.84;10469433;28;20330;-74
2022/08/03 01:00:22;;;;;;;3.55;2.22;;;;;;;23.18;44.74;100150.13;10452599;28;20344;-74
2022/08/03 01:05:24;;;;;;;2.65;2.05;;;;;;;23.18;45.06;100151.97;10475583;28;20131;-75
2022/08/03 01:10:29;;;;;;;3.78;2.17;;;;;;;23.06;45.76;100149.03;10482912;28;20677;-72
2022/08/03 01:15:45;;;;;;;4.25;2.15;;;;;;;23.00;46.17;100139.00;10456470;28;20759;-73
2022/08/03 01:20:52;;;;;;;2.72;2.13;;;;;;;23.07;46.02;100139.84;10469962;28;20054;-75
2022/08/03 01:26:11;;;;;;;2.63;1.90;;;;;;;23.03;45.96;100138.56;10470366;28;20445;-74
2022/08/03 01:31:17;;;;;;;2.45;2.20;;;;;;;22.94;46.21;100137.97;10470935;28;20091;-73
2022/08/03 01:36:23;;;;;;;3.13;2.50;;;;;;;22.89;46.34;100135.03;10471058;28;20076;-74
2022/08/03 01:41:30;;;;;;;3.38;2.25;;;;;;;22.87;46.34;100143.38;10468931;28;20052;-73
2022/08/03 01:46:33;;;;;;;2.85;2.60;;;;;;;22.81;46.64;100141.50;10455476;28;20133;-73
2022/08/03 01:51:37;;;;;;;3.97;2.22;;;;;;;22.78;46.95;100136.50;10466627;28;20131;-73
2022/08/03 01:56:58;;;;;;;2.70;2.45;;;;;;;22.65;47.18;100136.47;10468355;28;20060;-74
2022/08/03 02:02:01;;;;;;;2.88;2.30;;;;;;;22.53;47.22;100128.94;10453669;28;20052;-72
2022/08/03 02:07:25;;;;;;;2.60;2.17;;;;;;;22.48;47.60;100123.28;10467268;28;20478;-74
2022/08/03 02:12:30;;;;;;;5.13;3.20;;;;;;;22.56;47.95;100133.97;10452965;28;20177;-73
2022/08/03 02:17:32;;;;;;;2.63;2.30;;;;;;;22.56;47.96;100131.25;10448161;28;20051;-72
2022/08/03 02:22:42;;;;;;;3.17;2.88;;;;;;;22.45;48.33;100131.00;10450153;28;20064;-75
2022/08/03 02:27:54;;;;;;;4.82;2.72;;;;;;;22.41;48.12;100136.84;10472471;28;20426;-72
2022/08/03 02:32:57;;;;;;;5.13;2.60;;;;;;;22.31;48.31;100124.66;10466173;28;20073;-71
2022/08/03 02:38:01;;;;;;;;;;;;;;;22.28;48.91;100125.06;10468306;28;20155;-71
2022/08/03 02:43:06;;;;;;;2.97;2.70;;;;;;;22.32;48.95;100134.50;10455511;28;19969;-72
2022/08/03 02:48:10;;;;;;;3.88;3.50;;;;;;;22.20;49.11;100126.06;10467979;28;20056;-73
2022/08/03 02:53:13;;;;;;;4.45;3.45;;;;;;;22.20;49.73;100128.78;10475473;28;20040;-74
2022/08/03 02:58:18;;;;;;;3.45;3.13;;;;;;;22.16;49.46;100122.09;10477890;28;20490;-75
2022/08/03 03:03:21;;;;;;;4.22;3.50;;;;;;;22.07;49.62;100119.56;10476250;28;20052;-75
2022/08/03 03:08:23;;;;;;;3.60;3.00;;;;;;;22.01;49.93;100114.97;10473486;28;20620;-74
2022/08/03 03:13:31;;;;;;;4.15;3.20;;;;;;;21.95;50.41;100120.34;10476644;28;20439;-73
2022/08/03 03:18:33;;;;;;;;;;;;;;;21.96;50.70;100119.31;10475168;28;20124;-74
2022/08/03 03:23:37;;;;;;;3.38;2.90;;;;;;;22.00;50.55;100123.31;10472327;28;19924;-74
2022/08/03 03:28:39;;;;;;;3.83;3.05;;;;;;;22.07;50.78;100118.75;10475020;28;20056;-72
2022/08/03 03:33:40;;;;;;;3.70;3.25;;;;;;;21.99;50.38;100124.31;10459289;28;20053;-74
2022/08/03 03:38:42;;;;;;;4.43;3.65;;;;;;;21.94;50.97;100138.47;10474338;28;20476;-74
2022/08/03 03:43:43;;;;;;;4.35;3.70;;;;;;;21.80;50.84;100128.59;10461404;28;20063;-73
2022/08/03 03:48:45;;;;;;;4.53;3.38;;;;;;;21.71;50.78;100128.78;10475328;28;20778;-72
2022/08/03 03:54:01;;;;;;;3.70;3.40;;;;;;;21.78;50.86;100127.97;10475239;28;20063;-71
2022/08/03 03:59:03;;;;;;;3.50;3.20;;;;;;;21.78;51.11;100130.69;10455037;28;20048;-74
2022/08/03 04:14:47;;;;;;;3.72;2.95;;;;;;;21.86;50.27;100123.22;10476121;28;21015;-72
2022/08/03 04:19:52;;;;;;;3.95;3.53;;;;;;;21.84;49.75;100125.31;10464214;28;21069;-71
2022/08/03 04:25:07;;;;;;;3.88;3.30;;;;;;;21.88;49.90;100125.75;10472501;28;20044;-74
2022/08/03 04:30:09;;;;;;;4.25;3.85;;;;;;;21.85;49.79;100129.69;10476552;28;20046;-72
2022/08/03 04:35:11;;;;;;;4.57;4.15;;;;;;;21.84;50.34;100128.03;10476759;28;20052;-72
2022/08/03 04:40:18;;;;;;;3.58;3.28;;;;;;;21.87;49.95;100134.91;10480762;28;20072;-71
2022/08/03 04:45:24;;;;;;;4.88;3.42;;;;;;;21.84;50.07;100141.56;10462587;28;20075;-73
2022/08/03 04:50:26;;;;;;;5.25;3.33;;;;;;;21.81;49.98;100135.69;10459696;28;20469;-73
2022/08/03 04:55:29;;;;;;;4.43;3.53;;;;;;;21.85;49.78;100137.81;10449835;28;20051;-72
2022/08/03 05:00:31;;;;;;;3.38;2.90;;;;;;;21.71;49.96;100146.91;10434292;28;20569;-72
2022/08/03 05:05:33;;;;;;;3.72;3.17;;;;;;;21.82;50.02;100149.03;10459084;28;20122;-71
2022/08/03 05:10:52;;;;;;;5.50;3.33;;;;;;;21.92;50.49;100153.25;10451423;28;20067;-71
2022/08/03 05:15:53;;;;;;;3.50;3.17;;;;;;;21.98;50.07;100139.75;10454414;28;20048;-71
2022/08/03 05:20:54;;;;;;;7.97;2.90;;;;;;;21.96;49.45;100154.53;10454805;28;20563;-72
2022/08/03 05:25:56;;;;;;;6.70;3.47;;;;;;;21.93;49.48;100160.38;10442439;28;20045;-70
2022/08/03 05:30:57;;;;;;;3.25;2.67;;;;;;;22.04;49.57;100165.22;10458184;28;20052;-70
2022/08/03 05:35:59;;;;;;;3.10;2.85;;;;;;;22.17;49.51;100159.00;10445876;28;20048;-69
2022/08/03 05:41:04;;;;;;;3.97;2.90;;;;;;;22.24;49.34;100168.84;10462791;28;20047;-72
2022/08/03 05:46:25;;;;;;;4.15;2.85;;;;;;;22.32;48.98;100159.72;10457259;28;20052;-70
2022/08/03 05:51:27;;;;;;;4.63;2.42;;;;;;;22.39;48.39;100162.47;10459982;28;20052;-70
2022/08/03 05:56:29;;;;;;;3.83;2.72;;;;;;;22.53;48.78;100166.06;10450539;28;20051;-69
2022/08/03 06:01:31;;;;;;;2.90;2.45;;;;;;;22.53;48.44;100166.91;10434586;28;20047;-70
2022/08/03 06:06:33;;;;;;;4.28;2.63;;;;;;;22.71;48.31;100173.63;10453784;28;20056;-73
2022/08/03 06:11:35;;;;;;;3.15;2.40;;;;;;;22.70;48.09;100171.94;10439806;28;20104;-72
2022/08/03 06:16:36;;;;;;;4.70;2.10;;;;;;;22.80;48.16;100177.81;10454918;28;20848;-71
2022/08/03 06:21:38;;;;;;;3.05;2.50;;;;;;;22.97;47.91;100182.84;10455089;28;20056;-71
2022/08/03 06:26:40;;;;;;;4.18;2.25;;;;;;;23.01;46.23;100167.81;10447464;28;20056;-72
2022/08/03 06:31:41;;;;;;;3.22;2.10;;;;;;;23.08;47.50;100168.66;10455409;28;20056;-74
2022/08/03 06:36:42;;;;;;;3.25;2.47;;;;;;;23.34;48.05;100161.59;10452570;28;20154;-70
2022/08/03 06:41:44;;;;;;;4.20;2.25;;;;;;;23.49;46.40;100170.34;10447676;28;20730;-71
2022/08/03 06:46:46;;;;;;;2.88;2.03;;;;;;;23.74;45.74;100161.56;10449083;28;20056;-71
2022/08/03 06:51:50;;;;;;;5.82;2.17;;;;;;;23.88;45.35;100165.91;10448878;28;20354;-72
2022/08/03 06:57:07;;;;;;;3.53;1.90;;;;;;;24.06;44.48;100175.28;10450270;28;20059;-74
2022/08/03 07:02:09;;;;;;;3.22;2.00;;;;;;;24.22;44.76;100179.41;10447020;28;20544;-71
2022/08/03 07:07:10;;;;;;;6.13;2.38;;;;;;;24.34;43.80;100181.25;10433147;28;20425;-72
2022/08/03 07:12:11;;;;;;;3.97;2.08;;;;;;;24.51;43.44;100183.47;10451552;28;20056;-71
2022/08/03 07:17:13;;;;;;;4.55;2.25;;;;;;;24.59;43.36;100174.25;10450258;28;20056;-71
2022/08/03 07:22:14;;;;;;;3.90;2.13;;;;;;;24.79;43.52;100185.84;10456564;28;20052;-71
2022/08/03 07:27:16;;;;;;;3.88;1.95;;;;;;;25.09;42.54;100181.69;10464346;28;20132;-74
2022/08/03 07:32:18;;;;;;;2.38;1.40;;;;;;;25.25;41.72;100172.94;10449622;28;20123;-72
2022/08/03 07:37:20;;;;;;;2.85;1.90;;;;;;;25.45;41.81;100178.25;10470462;28;20663;-75
2022/08/03 07:42:24;;;;;;;4.85;2.13;;;;;;;25.64;40.76;100184.59;10449552;28;20067;-73
2022/08/03 07:47:29;;;;;;;2.95;1.83;;;;;;;25.97;40.71;100175.19;10463160;28;20052;-73
2022/08/03 07:52:48;;;;;;;3.50;2.05;;;;;;;26.01;40.06;100168.28;10464721;28;20251;-74
2022/08/03 07:58:02;;;;;;;3.22;1.77;;;;;;;26.23;39.87;100168.66;10465198;28;20204;-74
2022/08/03 08:03:04;;;;;;;1.60;1.20;;;;;;;26.47;38.96;100171.50;10462941;28;20541;-73
2022/08/03 08:08:06;;;;;;;4.40;1.52;;;;;;;26.88;38.91;100171.78;10463836;28;20062;-73
2022/08/03 08:13:07;;;;;;;2.30;1.50;;;;;;;27.09;38.15;100165.75;10459897;28;20045;-75
2022/08/03 08:18:08;;;;;;;2.78;1.73;;;;;;;27.34;37.96;100167.50;10458938;28;20059;-74
2022/08/03 08:23:10;;;;;;;2.53;1.35;;;;;;;27.29;37.32;100154.53;10455479;28;20071;-74
2022/08/03 08:28:31;;;;;;;3.00;1.30;;;;;;;27.31;35.94;100154.28;10468245;28;20056;-74
2022/08/03 08:33:34;;;;;;;3.17;1.42;;;;;;;27.62;36.62;100153.13;10470069;28;20071;-74
2022/08/03 08:38:56;;;;;;;1.73;1.50;;;;;;;28.14;36.03;100149.59;10462972;28;20058;-74
2022/08/03 08:43:57;;;;;;;3.60;1.60;;;;;;;28.14;35.99;100149.59;10460783;28;20430;-72
2022/08/03 08:49:00;;;;;;;4.28;1.75;;;;;;;28.68;34.48;100149.28;10444065;28;20290;-74
2022/08/03 08:54:07;;;;;;;4.25;1.75;;;;;;;29.21;33.46;100152.66;10442951;28;20133;-73
2022/08/03 08:59:08;;;;;;;4.00;1.80;;;;;;;29.65;32.53;100151.13;10443365;28;20041;-72
2022/08/03 09:04:10;;;;;;;7.30;1.53;;;;;;;29.94;32.61;100133.44;10460210;28;20055;-73
2022/08/03 09:09:12;;;;;;;4.25;1.60;;;;;;;29.92;31.78;100130.16;10441960;28;20058;-75
2022/08/03 09:14:34;;;;;;;2.55;1.50;;;;;;;30.23;31.71;100138.72;10446446;28;20052;-73
2022/08/03 09:20:08;;;;;;;6.03;1.87;;;;;;;30.54;30.46;100139.09;10462079;28;20269;-71
2022/08/03 09:25:10;;;;;;;3.47;1.83;;;;;;;30.90;29.14;100122.13;10440411;28;20878;-72
2022/08/03 09:30:27;;;;;;;4.40;1.50;;;;;;;30.89;29.64;100131.47;10461084;28;20048;-72
2022/08/03 09:35:42;;;;;;;4.88;1.55;;;;;;;31.16;30.03;100134.16;10443137;28;20141;-75
2022/08/03 09:40:55;;;;;;;2.03;1.50;;;;;;;31.18;29.51;100130.06;10438909;28;20546;-73
2022/08/03 09:46:06;;;;;;;2.95;1.73;;;;;;;31.68;28.29;100125.19;10433206;28;20071;-72
2022/08/03 09:51:08;;;;;;;2.70;1.60;;;;;;;31.93;28.76;100112.63;10450766;28;20067;-73
2022/08/03 09:56:40;;;;;;;2.90;1.23;;;;;;;32.22;27.82;100121.31;10440623;28;20116;-74
2022/08/03 10:01:42;;;;;;;2.78;1.45;;;;;;;32.38;28.97;100122.19;10451736;28;20056;-72
2022/08/03 10:06:44;;;;;;;;;;;;;;;32.92;26.87;100117.28;10451399;28;20098;-73
2022/08/03 10:11:46;;;;;;;4.38;2.25;;;;;;;33.18;27.66;100120.00;10432286;28;20389;-74
2022/08/03 10:16:48;;;;;;;2.05;1.60;;;;;;;33.24;27.12;100114.25;10434954;28;20817;-72
2022/08/03 10:21:55;;;;;;;3.05;2.00;;;;;;;33.69;26.96;100105.31;10456589;28;20109;-75
2022/08/03 10:27:03;;;;;;;4.13;1.52;;;;;;;34.28;26.10;100093.47;10446599;28;20518;-75
2022/08/03 10:32:42;;;;;;;3.38;1.65;;;;;;;34.62;25.76;100091.84;10455528;28;20363;-76
2022/08/03 10:37:56;;;;;;;3.60;1.20;;;;;;;34.99;23.82;100079.41;10452650;28;20050;-76
2022/08/03 10:43:08;;;;;;;3.47;1.38;;;;;;;35.34;23.51;100063.59;10454394;28;20044;-76
2022/08/03 10:48:10;;;;;;;3.13;1.30;;;;;;;36.10;22.41;100059.03;10441376;28;20127;-76
2022/08/03 10:53:12;;;;;;;2.78;1.10;;;;;;;36.28;22.46;100057.41;10456720;28;20048;-74
2022/08/03 10:58:37;;;;;;;3.22;1.38;;;;;;;36.49;21.77;100048.78;10453531;28;20653;-76
2022/08/03 11:03:58;;;;;;;3.60;1.25;;;;;;;36.65;22.42;100045.75;10455325;28;20048;-75
2022/08/03 11:09:08;;;;;;;3.50;1.48;;;;;;;36.96;20.86;100046.03;10455148;28;20112;-75
2022/08/03 11:14:12;;;;;;;;;;;;;;;36.76;21.57;100039.75;10449677;28;20087;-76
2022/08/03 11:19:15;;;;;;;1.70;0.90;;;;;;;36.93;21.73;100036.41;10451386;28;19938;-76
2022/08/03 11:24:35;;;;;;;3.42;0.93;;;;;;;37.45;21.44;100040.97;10468675;28;20139;-76
2022/08/03 11:29:52;;;;;;;;;;;;;;;37.33;21.94;100036.75;10471298;28;20040;-75
2022/08/03 11:35:07;;;;;;;2.15;0.95;;;;;;;37.61;20.95;100024.81;10446904;28;19924;-77
2022/08/03 11:40:32;;;;;;;1.73;0.93;;;;;;;37.98;20.68;100026.53;10463392;28;20052;-75
2022/08/03 11:45:34;;;;;;;1.52;0.90;;;;;;;37.77;19.59;100022.56;10443231;28;20056;-78
2022/08/03 11:50:36;;;;;;;2.58;0.85;;;;;;;37.39;21.12;100011.69;10458671;28;20052;-77
2022/08/03 11:55:42;;;;;;;1.05;0.85;;;;;;;36.87;19.93;100009.88;10448751;28;20557;-75
2022/08/03 12:00:43;;;;;;;2.00;1.00;;;;;;;37.02;20.99;100013.50;10441912;28;20347;-74
2022/08/03 12:05:51;;;;;;;0.90;0.80;;;;;;;37.22;19.85;100006.72;10466644;28;20720;-73
2022/08/03 12:10:55;;;;;;;1.40;0.80;;;;;;;36.80;20.64;99992.84;10465405;28;20896;-74
2022/08/03 12:15:58;;;;;;;1.45;0.90;;;;;;;36.83;20.63;100003.31;10464965;28;20044;-74
2022/08/03 12:21:09;;;;;;;1.83;0.90;;;;;;;36.59;21.13;100003.44;10459277;28;20045;-75
2022/08/03 12:26:11;;;;;;;1.92;1.00;;;;;;;36.77;20.98;99994.25;10456838;28;20052;-76
2022/08/03 12:31:12;;;;;;;2.42;1.10;;;;;;;36.73;21.12;99993.19;10459693;28;20058;-75
2022/08/03 12:36:14;;;;;;;1.30;0.90;;;;;;;36.96;20.82;99993.34;10438264;28;20067;-76
2022/08/03 12:41:27;;;;;;;3.78;1.10;;;;;;;36.85;21.16;99992.72;10455128;28;20124;-76
2022/08/03 12:46:37;;;;;;;2.70;1.42;;;;;;;36.40;21.00;99984.09;10456057;28;20040;-75
2022/08/03 12:51:41;;;;;;;2.75;1.10;;;;;;;36.34;21.59;99974.22;10462632;28;21672;-75
2022/08/03 12:57:09;;;;;;;1.00;0.90;;;;;;;36.57;21.96;99972.41;10459652;28;20865;-74
2022/08/03 13:02:23;;;;;;;1.90;0.88;;;;;;;36.53;21.26;99975.00;10455467;28;20055;-75
2022/08/03 13:07:25;;;;;;;1.13;1.00;;;;;;;36.49;21.04;99971.19;10460013;28;20056;-75
2022/08/03 13:12:28;;;;;;;1.90;1.00;;;;;;;36.19;21.21;99959.44;10440013;28;20052;-74
2022/08/03 13:17:30;;;;;;;2.08;1.05;;;;;;;36.07;21.89;99959.91;10456752;28;20439;-75
2022/08/03 13:22:32;;;;;;;1.67;1.08;;;;;;;36.04;21.38;99954.16;10456287;28;20422;-74
2022/08/03 13:27:33;;;;;;;2.13;0.82;;;;;;;35.90;21.92;99946.63;10456028;28;20911;-74
2022/08/03 13:32:57;;;;;;;1.17;1.08;;;;;;;35.81;21.31;99950.38;10454226;28;20060;-75
2022/08/03 13:37:59;;;;;;;2.75;1.38;;;;;;;35.79;22.02;99952.63;10456536;28;20047;-75
2022/08/03 13:43:00;;;;;;;2.30;0.88;;;;;;;35.76;22.05;99948.47;10442217;28;20048;-75
2022/08/03 13:48:02;;;;;;;1.05;0.95;;;;;;;35.68;22.24;99940.84;10443013;28;20072;-73
2022/08/03 13:53:03;;;;;;;2.50;1.08;;;;;;;35.63;22.33;99924.31;10438897;28;20056;-75
2022/08/03 13:58:08;;;;;;;1.80;0.85;;;;;;;35.62;22.03;99926.25;10452172;28;20052;-74
2022/08/03 14:03:10;;;;;;;1.13;0.82;;;;;;;35.33;22.69;99918.91;10445440;28;20044;-74
2022/08/03 14:08:15;;;;;;;2.00;1.00;;;;;;;35.23;21.67;99910.72;10456046;28;20097;-76
2022/08/03 14:13:17;;;;;;;0.65;0.63;;;;;;;35.19;22.04;99910.50;10443687;28;20709;-74
2022/08/03 14:18:20;;;;;;;1.33;0.95;;;;;;;35.13;21.87;99911.69;10450139;28;20052;-74
2022/08/03 14:23:36;;;;;;;1.55;0.70;;;;;;;34.94;21.55;99910.81;10445471;28;20072;-75
2022/08/03 14:28:37;;;;;;;0.75;0.70;;;;;;;34.80;21.86;99906.00;10452298;28;20055;-77
2022/08/03 14:33:39;;;;;;;2.90;0.80;;;;;;;34.53;22.21;99890.78;10448685;28;20648;-74
2022/08/03 14:38:41;;;;;;;1.48;1.00;;;;;;;34.43;22.80;99892.84;10439163;28;20211;-74
2022/08/03 14:43:42;;;;;;;2.08;1.08;;;;;;;34.27;22.99;99889.38;10435670;28;20044;-75
2022/08/03 14:49:04;;;;;;;0.80;0.80;;;;;;;34.15;23.13;99890.53;10440438;28;20055;-74
2022/08/03 14:54:25;;;;;;;2.10;1.20;;;;;;;34.13;23.78;99890.03;10454333;28;20060;-74
2022/08/03 14:59:26;;;;;;;1.25;0.75;;;;;;;34.08;23.38;99889.25;10449644;28;20055;-74
2022/08/03 15:04:48;;;;;;;;;;;;;;;34.02;23.34;99879.34;10449974;28;20087;-73
2022/08/03 15:09:49;;;;;;;1.20;0.90;;;;;;;33.87;23.39;99874.78;10456014;28;20448;-74
2022/08/03 15:14:50;;;;;;;1.50;0.73;;;;;;;33.78;23.33;99869.91;10452777;28;20056;-73
2022/08/03 15:19:52;;;;;;;1.00;0.80;;;;;;;33.87;23.49;99864.59;10433901;28;20127;-75
2022/08/03 15:25:13;;;;;;;;;;;;;;;33.86;23.52;99859.34;10460826;28;20040;-73
2022/08/03 15:30:36;;;;;;;1.13;0.87;;;;;;;33.75;23.57;99850.31;10447993;28;19924;-73
2022/08/03 15:35:37;;;;;;;1.40;0.88;;;;;;;33.69;23.45;99855.03;10462152;28;20317;-74
2022/08/03 15:40:39;;;;;;;;;;;;;;;33.50;23.79;99851.31;10459365;28;20159;-74
2022/08/03 15:45:41;;;;;;;2.05;0.95;;;;;;;33.45;23.98;99847.47;10454449;28;19930;-75
2022/08/03 15:50:43;;;;;;;1.15;1.02;;;;;;;33.42;23.83;99839.78;10424987;28;20155;-75
2022/08/03 15:55:44;;;;;;;1.15;1.00;;;;;;;33.40;24.14;99836.44;10460418;28;20051;-73
2022/08/03 16:00:46;;;;;;;1.15;0.90;;;;;;;33.34;24.27;99832.09;10468314;28;20036;-75
2022/08/03 16:05:47;;;;;;;3.60;1.20;;;;;;;33.27;24.14;99820.56;10501829;28;20037;-74
2022/08/03 16:10:49;;;;;;;3.42;0.80;;;;;;;33.34;24.43;99823.81;10457245;28;20058;-75
2022/08/03 16:15:51;;;;;;;;;;;;;;;33.46;23.86;99821.53;10464090;28;20214;-72
2022/08/03 16:20:52;;;;;;;0.80;0.65;;;;;;;33.44;23.94;99823.75;10464459;28;19973;-75
2022/08/03 16:25:53;;;;;;;1.10;0.75;;;;;;;33.31;24.84;99821.63;10463950;28;21065;-73
2022/08/03 16:30:55;;;;;;;2.45;0.70;;;;;;;33.25;24.55;99817.25;10462637;28;20330;-72
2022/08/03 16:35:56;;;;;;;2.30;0.70;;;;;;;33.20;24.42;99811.78;10465768;28;20049;-73
2022/08/03 16:40:58;;;;;;;2.28;0.88;;;;;;;33.19;24.67;99818.38;10462160;28;20040;-72
2022/08/03 16:45:59;;;;;;;;;;;;;;;33.21;24.44;99819.78;10445795;28;20158;-73
2022/08/03 16:51:01;;;;;;;0.73;0.70;;;;;;;33.34;23.89;99821.06;10459607;28;20010;-75
2022/08/03 16:56:03;;;;;;;1.95;0.70;;;;;;;33.19;24.15;99813.66;10443259;28;20831;-75
2022/08/03 17:01:12;;;;;;;1.92;0.60;;;;;;;33.12;24.41;99804.91;10457114;28;20048;-75
2022/08/03 17:06:25;;;;;;;2.13;1.08;;;;;;;33.13;24.00;99817.56;10443186;28;20055;-75
2022/08/03 17:11:37;;;;;;;1.03;0.60;;;;;;;33.08;25.04;99815.66;10439677;28;20060;-72
2022/08/03 17:16:39;;;;;;;2.20;0.70;;;;;;;32.88;25.06;99807.50;10437076;28;20302;-75
2022/08/03 17:21:56;;;;;;;1.83;0.88;;;;;;;32.82;24.69;99812.22;10461321;28;20121;-74
2022/08/03 17:27:02;;;;;;;1.00;0.88;;;;;;;32.80;24.64;99821.88;10434631;28;20048;-76
2022/08/03 17:32:09;;;;;;;1.67;0.70;;;;;;;32.85;24.59;99817.19;10439309;28;20044;-74
2022/08/03 17:37:20;;;;;;;1.40;0.82;;;;;;;32.81;24.67;99813.31;10453016;28;20354;-74
2022/08/03 17:42:42;;;;;;;6.25;1.73;;;;;;;32.77;24.88;99813.09;10454705;28;20059;-76
2022/08/03 17:47:43;;;;;;;2.15;0.70;;;;;;;32.71;24.84;99822.47;10453749;28;20056;-74
2022/08/03 17:53:04;;;;;;;2.00;0.85;;;;;;;32.55;25.43;99813.41;10450821;28;20132;-74
2022/08/03 17:58:41;;;;;;;1.50;0.70;;;;;;;32.36;25.72;99807.66;10452160;28;20055;-73
2022/08/03 18:03:51;;;;;;;1.25;0.82;;;;;;;32.22;26.23;99817.63;10435022;28;20048;-73
2022/08/03 18:09:00;;;;;;;1.85;0.80;;;;;;;32.08;26.00;99820.91;10433862;28;20059;-72
2022/08/03 18:14:35;;;;;;;1.80;0.63;;;;;;;31.97;26.16;99816.50;10450314;28;20411;-73
2022/08/03 18:19:37;;;;;;;2.70;1.25;;;;;;;31.83;26.73;99816.25;10448207;28;20484;-73
2022/08/03 18:24:59;;;;;;;2.08;0.98;;;;;;;31.70;27.02;99806.63;10445941;28;20737;-72
2022/08/03 18:30:08;;;;;;;1.02;0.88;;;;;;;31.62;27.25;99818.19;10446303;28;22393;-72
2022/08/03 18:35:13;;;;;;;1.80;1.00;;;;;;;31.51;28.01;99819.22;10451951;28;20135;-72
2022/08/03 18:40:16;;;;;;;25.73;18.80;;;;;;;31.38;28.14;99824.16;10451484;28;20054;-72
2022/08/03 18:45:21;;;;;;;2.55;1.75;;;;;;;31.27;28.17;99825.25;10435490;28;20128;-71
2022/08/03 18:50:49;;;;;;;1.83;1.15;;;;;;;31.17;28.63;99822.47;10444175;28;20395;-69
2022/08/03 18:56:21;;;;;;;2.60;1.67;;;;;;;31.09;28.95;99828.50;10450432;28;20068;-72
2022/08/03 19:01:26;;;;;;;1.85;1.45;;;;;;;30.97;29.10;99824.03;10450048;28;20056;-72
2022/08/03 19:06:48;;;;;;;3.78;1.63;;;;;;;30.87;29.44;99820.41;10444804;28;20048;-73
2022/08/03 19:11:52;;;;;;;1.40;1.27;;;;;;;30.77;29.57;99829.44;10431877;28;20097;-72
2022/08/03 19:17:14;;;;;;;2.25;1.30;;;;;;;30.66;29.49;99840.38;10434458;28;20056;-72
2022/08/03 19:22:25;;;;;;;2.28;1.90;;;;;;;30.57;29.76;99833.75;10443892;28;20070;-71
2022/08/03 19:27:29;;;;;;;4.25;2.10;;;;;;;30.47;29.78;99844.66;10447170;28;20099;-73
2022/08/03 19:32:33;;;;;;;5.75;4.03;;;;;;;30.39;30.03;99845.16;10433369;28;20060;-73
2022/08/03 19:37:36;;;;;;;6.13;4.72;;;;;;;30.31;30.06;99854.69;10463016;28;20127;-72
2022/08/03 19:42:45;;;;;;;6.53;3.58;;;;;;;30.20;30.87;99853.78;10469193;28;20437;-74
2022/08/03 19:47:51;;;;;;;3.67;2.78;;;;;;;30.13;30.49;99855.94;10463672;28;20417;-73
2022/08/03 19:52:54;;;;;;;2.72;2.10;;;;;;;30.05;30.75;99854.50;10462385;28;20064;-73
2022/08/03 19:57:57;;;;;;;3.08;2.22;;;;;;;29.94;30.32;99839.06;10474466;28;20538;-72
2022/08/03 20:03:00;;;;;;;3.42;2.42;;;;;;;29.88;30.57;99848.34;10477552;28;20570;-72
2022/08/03 20:08:04;;;;;;;3.17;2.00;;;;;;;29.78;30.81;99840.81;10465866;28;20135;-71
2022/08/03 20:13:05;;;;;;;2.63;1.80;;;;;;;29.71;31.10;99848.44;10477814;28;20123;-72
2022/08/03 20:18:08;;;;;;;2.28;1.40;;;;;;;29.66;31.17;99834.69;10475096;28;20044;-72
2022/08/03 20:23:18;;;;;;;5.13;2.15;;;;;;;29.59;31.14;99835.72;10476268;28;20055;-73
2022/08/03 20:28:26;;;;;;;2.83;1.90;;;;;;;29.53;31.69;99841.41;10476268;28;20045;-73
2022/08/03 20:33:29;;;;;;;3.50;2.40;;;;;;;29.46;31.48;99847.09;10475764;28;20062;-74
2022/08/03 20:38:49;;;;;;;2.92;2.50;;;;;;;29.38;31.55;99853.88;10476616;28;20059;-72
2022/08/03 20:43:52;;;;;;;3.45;2.28;;;;;;;29.28;31.86;99842.81;10464354;28;20139;-71
2022/08/03 20:48:56;;;;;;;4.17;2.50;;;;;;;29.21;32.05;99845.72;10477085;28;20151;-70
2022/08/03 20:53:59;;;;;;;3.28;2.58;;;;;;;29.14;31.64;99839.63;10468814;28;20066;-72
2022/08/03 20:59:22;;;;;;;2.80;2.60;;;;;;;29.08;31.98;99844.22;10472263;28;20060;-72
2022/08/03 21:04:24;;;;;;;2.83;2.15;;;;;;;29.02;32.87;99852.59;10472743;28;20098;-72
2022/08/03 21:09:30;;;;;;;3.03;2.73;;;;;;;28.96;32.76;99837.19;10468956;28;20720;-72
2022/08/03 21:15:03;;;;;;;4.10;2.80;;;;;;;28.85;32.73;99834.31;10474013;28;20052;-73
2022/08/03 21:20:06;;;;;;;3.08;2.63;;;;;;;28.75;33.57;99828.75;10448877;28;20383;-71
2022/08/03 21:25:08;;;;;;;2.95;2.67;;;;;;;28.66;33.43;99832.97;10455894;28;20060;-72
2022/08/03 21:30:10;;;;;;;4.25;3.63;;;;;;;28.56;33.61;99834.47;10467705;28;20143;-72
2022/08/03 21:35:12;;;;;;;3.80;2.22;;;;;;;28.45;33.50;99826.38;10470276;28;21020;-73
2022/08/03 21:40:15;;;;;;;2.50;2.30;;;;;;;28.41;33.74;99828.78;10452741;28;20040;-71
2022/08/03 21:45:16;;;;;;;2.97;2.63;;;;;;;28.31;34.11;99825.91;10467769;28;20044;-71
2022/08/03 21:50:19;;;;;;;3.33;3.00;;;;;;;28.21;34.72;99829.34;10468848;28;20052;-72
2022/08/03 21:55:24;;;;;;;;;;;;;;;28.11;35.18;99827.25;10474061;28;20054;-75
2022/08/03 22:00:26;;;;;;;2.45;2.25;;;;;;;28.03;35.25;99830.44;10468683;28;19930;-77
2022/08/03 22:05:27;;;;;;;2.77;2.57;;;;;;;28.01;35.18;99832.56;10467927;28;20507;-72
2022/08/03 22:10:46;;;;;;;2.70;2.42;;;;;;;27.96;35.15;99824.25;10466765;28;20071;-72
2022/08/03 22:15:47;;;;;;;3.58;2.58;;;;;;;27.90;35.46;99826.06;10460147;28;20098;-71
2022/08/03 22:20:50;;;;;;;2.65;2.45;;;;;;;27.87;36.43;99827.38;10471726;28;20058;-74
2022/08/03 22:25:55;;;;;;;3.92;2.00;;;;;;;27.75;36.06;99823.91;10472249;28;20145;-73
2022/08/03 22:30:58;;;;;;;3.97;2.63;;;;;;;27.66;36.47;99830.88;10472701;28;20047;-72
2022/08/03 22:36:22;;;;;;;4.80;2.50;;;;;;;27.63;37.19;99837.66;10473665;28;20048;-73
2022/08/03 22:41:23;;;;;;;2.60;2.40;;;;;;;27.51;37.20;99828.69;10472125;28;20044;-73
2022/08/03 22:46:26;;;;;;;3.53;2.83;;;;;;;27.39;37.41;99847.88;10468773;28;20624;-73
2022/08/03 22:51:27;;;;;;;3.60;2.20;;;;;;;27.28;37.88;99837.81;10467813;28;20050;-72
2022/08/03 22:56:29;;;;;;;3.10;2.40;;;;;;;27.16;37.97;99841.41;10458551;28;20048;-72
2022/08/03 23:01:40;;;;;;;2.78;2.45;;;;;;;27.14;38.14;99850.91;10463665;28;20048;-72
2022/08/03 23:06:47;;;;;;;4.30;2.97;;;;;;;27.04;38.13;99840.63;10466680;28;20185;-73
2022/08/03 23:11:52;;;;;;;3.65;2.85;;;;;;;27.03;38.24;99854.53;10470523;28;20045;-72
2022/08/03 23:16:55;;;;;;;4.07;2.70;;;;;;;26.96;38.50;99860.97;10477528;28;20062;-72
2022/08/03 23:21:58;;;;;;;2.95;2.60;;;;;;;26.92;38.76;99854.31;10455461;28;20052;-72
2022/08/03 23:27:06;;;;;;;6.10;3.30;;;;;;;26.84;39.37;99851.94;10475641;28;20048;-73
2022/08/03 23:32:08;;;;;;;3.08;2.60;;;;;;;26.75;39.31;99853.38;10485779;28;20693;-73
2022/08/03 23:37:12;;;;;;;3.17;2.58;;;;;;;26.70;39.72;99851.38;10485029;28;20044;-72
2022/08/03 23:42:18;;;;;;;5.28;2.38;;;;;;;26.65;39.46;99843.06;10476047;28;20041;-71
2022/08/03 23:47:19;;;;;;;2.78;2.50;;;;;;;26.61;40.05;99847.34;10460973;28;21034;-71
2022/08/03 23:52:42;;;;;;;4.77;2.50;;;;;;;26.53;39.81;99844.94;10484210;28;20037;-68
2022/08/03 23:58:04;;;;;;;2.30;2.10;;;;;;;26.51;39.67;99847.09;10476412;28;20468;-72
